createdAt,value
2019-04-03T00:01:05.897Z,10.50
2019-04-03T00:06:09.745Z,10.50
2019-04-03T00:11:13.849Z,10.40
2019-04-03T00:16:18.659Z,10.30
2019-04-03T00:21:22.562Z,10.30
2019-04-03T00:26:26.416Z,10.20
2019-04-03T00:31:30.400Z,10.20
2019-04-03T00:36:34.336Z,10.10
2019-04-03T00:41:38.236Z,10.20
2019-04-03T00:46:42.094Z,10.10
2019-04-03T00:51:45.999Z,10.10
2019-04-03T00:56:49.915Z,10.10
2019-04-03T01:01:54.744Z,10.00
2019-04-03T01:06:59.360Z,9.90
2019-04-03T01:12:03.199Z,9.90
2019-04-03T01:17:07.057Z,9.80
2019-04-03T01:22:11.899Z,9.80
2019-04-03T01:27:15.691Z,9.80
2019-04-03T01:32:19.557Z,9.80
2019-04-03T01:37:23.427Z,9.80
2019-04-03T01:42:27.278Z,9.70
2019-04-03T01:47:31.073Z,9.70
2019-04-03T01:52:34.859Z,9.70
2019-04-03T01:57:38.717Z,9.60
2019-04-03T02:02:42.583Z,9.60
2019-04-03T02:07:46.454Z,9.60
2019-04-03T02:12:51.263Z,9.60
2019-04-03T02:17:55.476Z,9.50
2019-04-03T02:23:00.434Z,9.60
2019-04-03T02:28:04.593Z,9.50
2019-04-03T02:33:08.430Z,9.50
2019-04-03T02:38:12.478Z,9.50
2019-04-03T02:43:16.646Z,9.50
2019-04-03T02:48:20.691Z,9.40
2019-04-03T02:53:24.880Z,9.40
2019-04-03T02:58:29.073Z,9.30
2019-04-03T03:03:33.002Z,9.30
2019-04-03T03:08:40.749Z,9.30
2019-04-03T03:13:44.331Z,9.40
2019-04-03T03:18:48.561Z,9.50
2019-04-03T03:23:55.156Z,9.40
2019-04-03T03:29:14.200Z,9.40
2019-04-03T03:34:05.884Z,9.50
2019-04-03T03:39:10.930Z,9.50
2019-04-03T03:44:16.617Z,9.50
2019-04-03T03:49:21.152Z,9.50
2019-04-03T03:54:26.330Z,9.50
2019-04-03T03:59:30.866Z,9.40
2019-04-03T04:04:34.657Z,9.40
2019-04-03T04:09:38.839Z,9.40
2019-04-03T04:14:42.941Z,9.30
2019-04-03T04:19:47.055Z,9.30
2019-04-03T04:24:50.966Z,9.20
2019-04-03T04:29:55.234Z,9.20
2019-04-03T04:34:59.128Z,9.10
2019-04-03T04:40:03.035Z,9.10
2019-04-03T04:45:07.535Z,9.10
2019-04-03T04:50:11.401Z,9.10
2019-04-03T04:55:15.274Z,9.10
2019-04-03T05:00:19.150Z,9.20
2019-04-03T05:05:23.033Z,9.20
2019-04-03T05:10:26.890Z,9.30
2019-04-03T05:15:30.754Z,9.50
2019-04-03T05:20:35.127Z,9.40
2019-04-03T05:25:39.068Z,9.50
2019-04-03T05:30:43.105Z,9.60
2019-04-03T05:35:46.988Z,9.70
2019-04-03T05:40:50.896Z,9.80
2019-04-03T05:45:54.817Z,9.90
2019-04-03T05:50:58.857Z,9.90
2019-04-03T05:56:02.886Z,10.00
2019-04-03T06:01:07.397Z,10.10
2019-04-03T06:06:14.004Z,10.30
2019-04-03T06:11:20.565Z,10.40
2019-04-03T06:16:24.761Z,10.70
2019-04-03T06:21:28.837Z,10.80
2019-04-03T06:26:33.121Z,11.00
2019-04-03T06:31:37.075Z,11.10
2019-04-03T06:36:41.027Z,11.20
2019-04-03T06:41:44.932Z,11.20
2019-04-03T06:46:48.990Z,11.30
2019-04-03T06:51:53.145Z,11.40
2019-04-03T06:56:57.171Z,11.50
2019-04-03T07:02:01.167Z,11.50
2019-04-03T07:07:05.219Z,11.60
2019-04-03T07:12:09.059Z,11.60
2019-04-03T07:17:14.425Z,11.70
2019-04-03T07:22:18.290Z,11.70
2019-04-03T07:27:22.348Z,11.80
2019-04-03T07:32:26.273Z,11.80
2019-04-03T07:37:30.426Z,12.00
2019-04-03T07:42:34.449Z,12.50
2019-04-03T07:47:38.330Z,13.30
2019-04-03T07:52:42.227Z,14.00
2019-04-03T07:57:46.094Z,14.60
2019-04-03T08:02:50.167Z,15.00
2019-04-03T08:07:54.166Z,15.10
2019-04-03T08:12:59.577Z,14.60
2019-04-03T08:18:03.849Z,15.20
2019-04-03T08:23:07.748Z,15.80
2019-04-03T08:28:11.560Z,16.30
2019-04-03T08:33:18.283Z,16.60
2019-04-03T08:38:21.078Z,16.80
2019-04-03T08:43:24.936Z,17.20
2019-04-03T08:48:28.814Z,17.20
2019-04-03T08:53:32.687Z,16.80
2019-04-03T08:58:36.579Z,16.40
2019-04-03T09:03:40.455Z,16.60
2019-04-03T09:08:44.333Z,17.10
2019-04-03T09:13:48.276Z,17.70
2019-04-03T09:18:52.371Z,18.00
2019-04-03T09:23:58.134Z,18.00
2019-04-03T09:29:02.190Z,18.50
2019-04-03T09:34:06.068Z,18.90
2019-04-03T09:39:13.958Z,19.30
2019-04-03T09:44:17.161Z,19.60
2019-04-03T09:49:21.087Z,19.40
2019-04-03T09:54:27.337Z,19.70
2019-04-03T09:59:30.586Z,19.80
2019-04-03T10:04:34.498Z,20.40
2019-04-03T10:09:39.194Z,20.60
2019-04-03T10:14:43.244Z,20.00
2019-04-03T10:19:47.117Z,19.40
2019-04-03T10:24:50.919Z,19.60
2019-04-03T10:29:56.319Z,20.10
2019-04-03T10:35:02.387Z,20.20
2019-04-03T10:40:08.247Z,20.30
2019-04-03T10:45:12.777Z,20.50
2019-04-03T10:50:17.256Z,21.10
2019-04-03T10:55:21.343Z,21.30
2019-04-03T11:00:28.674Z,21.40
2019-04-03T11:05:31.481Z,20.80
2019-04-03T11:10:35.382Z,20.50
2019-04-03T11:15:39.428Z,20.10
2019-04-03T11:20:43.603Z,20.00
2019-04-03T11:25:47.980Z,19.90
2019-04-03T11:30:53.151Z,20.00
2019-04-03T11:35:57.791Z,19.90
2019-04-03T11:41:11.672Z,19.80
2019-04-03T11:46:07.643Z,19.80
2019-04-03T11:51:13.060Z,20.00
2019-04-03T11:56:17.157Z,20.30
2019-04-03T12:01:21.100Z,20.80
2019-04-03T12:06:25.262Z,21.20
2019-04-03T12:11:29.224Z,21.50
2019-04-03T12:16:33.678Z,21.50
2019-04-03T12:21:38.077Z,21.30
2019-04-03T12:26:43.148Z,21.40
2019-04-03T12:31:47.953Z,21.30
2019-04-03T12:36:51.940Z,21.20
2019-04-03T12:41:56.148Z,21.20
2019-04-03T12:47:00.252Z,21.00
2019-04-03T12:52:04.735Z,20.80
2019-04-03T12:57:10.326Z,20.80
2019-04-03T13:02:14.196Z,20.70
2019-04-03T13:07:18.287Z,20.60
2019-04-03T13:12:26.462Z,20.70
2019-04-03T13:17:27.901Z,20.70
2019-04-03T13:22:31.965Z,20.80
2019-04-03T13:27:36.318Z,20.80
2019-04-03T13:32:41.791Z,20.80
2019-04-03T13:37:46.269Z,20.70
2019-04-03T13:42:50.597Z,20.70
2019-04-03T13:47:54.519Z,20.70
2019-04-03T13:52:58.415Z,20.80
2019-04-03T13:58:02.401Z,20.80
2019-04-03T14:03:06.373Z,20.80
2019-04-03T14:08:12.139Z,20.80
2019-04-03T14:13:15.942Z,20.80
2019-04-03T14:18:20.151Z,20.90
2019-04-03T14:23:24.131Z,20.80
2019-04-03T14:28:28.149Z,20.90
2019-04-03T14:33:41.767Z,20.90
2019-04-03T14:38:37.608Z,21.00
2019-04-03T14:43:41.667Z,20.90
2019-04-03T14:48:45.891Z,20.80
2019-04-03T14:53:51.514Z,20.80
2019-04-03T14:58:57.194Z,20.60
2019-04-03T15:04:01.833Z,20.70
2019-04-03T15:09:08.454Z,20.70
2019-04-03T15:14:12.294Z,20.60
2019-04-03T15:19:16.175Z,20.60
2019-04-03T15:24:20.037Z,20.60
2019-04-03T15:29:23.895Z,20.60
2019-04-03T15:34:28.823Z,20.60
2019-04-03T15:39:33.393Z,20.60
2019-04-03T15:44:37.449Z,20.50
2019-04-03T15:49:41.436Z,20.50
2019-04-03T15:54:45.295Z,20.40
2019-04-03T15:59:51.699Z,20.30
2019-04-03T16:04:55.054Z,20.30
2019-04-03T16:09:59.070Z,20.20
2019-04-03T16:15:03.158Z,20.00
2019-04-03T16:20:07.380Z,19.80
2019-04-03T16:25:11.347Z,19.70
2019-04-03T16:30:16.537Z,19.70
2019-04-03T16:35:20.884Z,19.60
2019-04-03T16:40:25.169Z,19.50
2019-04-03T16:45:30.630Z,19.30
2019-04-03T16:50:34.779Z,19.20
2019-04-03T16:55:38.780Z,19.10
2019-04-03T17:00:42.827Z,19.00
2019-04-03T17:05:47.336Z,18.80
2019-04-03T17:10:51.314Z,18.70
2019-04-03T17:15:55.319Z,18.60
2019-04-03T17:20:59.747Z,18.50
2019-04-03T17:26:04.127Z,18.30
2019-04-03T17:31:08.605Z,18.20
2019-04-03T17:36:15.405Z,18.10
2019-04-03T17:41:19.678Z,18.00
2019-04-03T17:46:25.075Z,18.00
2019-04-03T17:51:29.154Z,17.80
2019-04-03T17:56:35.484Z,17.70
2019-04-03T18:01:38.587Z,17.60
2019-04-03T18:06:42.491Z,17.50
2019-04-03T18:11:49.111Z,17.40
2019-04-03T18:16:53.172Z,17.30
2019-04-03T18:21:58.355Z,17.20
2019-04-03T18:27:03.091Z,17.20
2019-04-03T18:32:07.270Z,17.10
2019-04-03T18:37:11.216Z,17.00
2019-04-03T18:42:15.120Z,16.90
2019-04-03T18:47:19.181Z,17.00
2019-04-03T18:52:23.274Z,17.00
2019-04-03T18:57:27.385Z,17.00
2019-04-03T19:02:32.952Z,17.00
2019-04-03T19:07:36.927Z,17.00
2019-04-03T19:12:43.653Z,16.90
2019-04-03T19:17:58.992Z,16.90
2019-04-03T19:23:02.481Z,16.90
2019-04-03T19:27:58.888Z,16.80
2019-04-03T19:33:02.784Z,16.80
2019-04-03T19:38:06.652Z,16.70
2019-04-03T19:43:10.823Z,16.70
2019-04-03T19:48:14.697Z,16.60
2019-04-03T19:53:18.563Z,16.50
2019-04-03T19:58:22.428Z,16.50
2019-04-03T20:03:33.720Z,16.40
2019-04-03T20:08:37.680Z,16.30
2019-04-03T20:13:41.485Z,16.30
2019-04-03T20:18:45.377Z,16.30
2019-04-03T20:23:49.239Z,16.30
2019-04-03T20:28:53.123Z,16.20
2019-04-03T20:33:56.992Z,16.10
2019-04-03T20:39:00.874Z,16.10
2019-04-03T20:44:04.864Z,16.10
2019-04-03T20:49:08.761Z,16.00
2019-04-03T20:54:12.720Z,15.90
2019-04-03T20:59:16.682Z,15.80
2019-04-03T21:04:20.561Z,15.70
2019-04-03T21:09:24.479Z,15.60
2019-04-03T21:14:28.334Z,15.60
2019-04-03T21:19:32.644Z,15.60
2019-04-03T21:24:36.538Z,15.60
2019-04-03T21:29:42.138Z,15.60
2019-04-03T21:34:46.029Z,15.50
2019-04-03T21:39:50.040Z,15.50
2019-04-03T21:44:53.898Z,15.50
2019-04-03T21:49:57.769Z,15.40
2019-04-03T21:55:04.563Z,15.40
2019-04-03T22:00:12.968Z,15.30
